Terminal Aerodrome Forecast
Issued by NWS

Home | Current Version | Previous Version | Text Only | Print | Product List | Glossary On
Versions: 1 2 3 4 5 6 7 8 9 10 11 12 13 14 15 16
000
FTUS43 KIND 010830 AAA
TAFBMG
TAF AMD
KBMG 010830Z 0109/0206 00000KT 4SM BR SCT060
      TEMPO 0110/0113 1 1/2SM BR
     FM011400 22006KT P6SM SCT050
     FM020100 18003KT P6SM SCT250
      AMD LTD TO CLD VIS AND WIND TIL 011300=

USA.gov is the U.S. government's official web portal to all federal, state and local government web resources and services.